Terminal Aerodrome Forecast
Issued by NWS Charleston, WV

Current Version | Previous Version | Graphics & Text | Print | Product List | Glossary On
Versions: 1 2 3 4 5 6 7 8 9 10 11 12 13 14 15 16 17 18 19 20 21 22 23 24 25 26 27 28 29 30 31 32
000
FTUS41 KRLX 270200 AAA
TAFBKW
TAF AMD
KBKW 270237Z 2703/2724 33009KT P6SM -RA OVC008
     FM270300 33009KT P6SM -RA OVC010
     FM270400 33008KT P6SM -RA OVC012
     FM270900 33008KT P6SM OVC015
     FM271600 32008G14KT P6SM BKN025
     FM271800 32008G14KT P6SM BKN035=

USA.gov is the U.S. government's official web portal to all federal, state and local government web resources and services.